sensor_id;sensor_type;location;lat;lon;timestamp;P1;durP1;ratioP1;P2;durP2;ratioP2
20441;SDS011;10380;52.102;20.614;2022-08-11T00:01:08;10.20;;;6.43;;
20441;SDS011;10380;52.102;20.614;2022-08-11T00:03:54;11.37;;;5.77;;
20441;SDS011;10380;52.102;20.614;2022-08-11T00:06:28;10.15;;;6.30;;
20441;SDS011;10380;52.102;20.614;2022-08-11T00:08:58;13.40;;;7.28;;
20441;SDS011;10380;52.102;20.614;2022-08-11T00:11:31;11.52;;;6.10;;
20441;SDS011;10380;52.102;20.614;2022-08-11T00:14:27;15.90;;;5.88;;
20441;SDS011;10380;52.102;20.614;2022-08-11T00:17:04;10.17;;;6.10;;
20441;SDS011;10380;52.102;20.614;2022-08-11T00:19:38;12.07;;;6.47;;
20441;SDS011;10380;52.102;20.614;2022-08-11T00:22:27;9.20;;;5.47;;
20441;SDS011;10380;52.102;20.614;2022-08-11T00:24:56;10.57;;;5.67;;
20441;SDS011;10380;52.102;20.614;2022-08-11T00:27:34;10.87;;;5.67;;
20441;SDS011;10380;52.102;20.614;2022-08-11T00:30:04;8.90;;;6.03;;
20441;SDS011;10380;52.102;20.614;2022-08-11T00:32:33;11.13;;;5.70;;
20441;SDS011;10380;52.102;20.614;2022-08-11T00:35:03;8.30;;;4.83;;
20441;SDS011;10380;52.102;20.614;2022-08-11T00:37:53;12.47;;;5.60;;
20441;SDS011;10380;52.102;20.614;2022-08-11T00:40:30;8.17;;;5.83;;
20441;SDS011;10380;52.102;20.614;2022-08-11T00:48:40;8.90;;;5.43;;
20441;SDS011;10380;52.102;20.614;2022-08-11T00:51:22;11.80;;;6.50;;
20441;SDS011;10380;52.102;20.614;2022-08-11T01:00:03;10.10;;;6.50;;
20441;SDS011;10380;52.102;20.614;2022-08-11T01:37:57;12.70;;;6.37;;
20441;SDS011;10380;52.102;20.614;2022-08-11T01:46:33;11.37;;;5.37;;
20441;SDS011;10380;52.102;20.614;2022-08-11T01:52:14;12.37;;;5.53;;
20441;SDS011;10380;52.102;20.614;2022-08-11T01:57:55;10.07;;;6.30;;
20441;SDS011;10380;52.102;20.614;2022-08-11T02:00:37;11.87;;;5.47;;
20441;SDS011;10380;52.102;20.614;2022-08-11T02:03:23;7.23;;;5.60;;
20441;SDS011;10380;52.102;20.614;2022-08-11T02:12:02;6.67;;;5.13;;
20441;SDS011;10380;52.102;20.614;2022-08-11T02:15:16;8.73;;;5.60;;
20441;SDS011;10380;52.102;20.614;2022-08-11T02:18:21;9.73;;;5.53;;
20441;SDS011;10380;52.102;20.614;2022-08-11T02:21:15;12.53;;;5.23;;
20441;SDS011;10380;52.102;20.614;2022-08-11T02:24:10;10.30;;;5.43;;
20441;SDS011;10380;52.102;20.614;2022-08-11T02:26:44;7.63;;;5.17;;
20441;SDS011;10380;52.102;20.614;2022-08-11T02:32:15;9.60;;;5.63;;
20441;SDS011;10380;52.102;20.614;2022-08-11T02:35:11;8.07;;;5.87;;
20441;SDS011;10380;52.102;20.614;2022-08-11T02:43:27;7.77;;;5.20;;
20441;SDS011;10380;52.102;20.614;2022-08-11T02:46:25;9.20;;;5.73;;
20441;SDS011;10380;52.102;20.614;2022-08-11T02:52:07;8.20;;;5.83;;
20441;SDS011;10380;52.102;20.614;2022-08-11T02:55:05;6.63;;;5.77;;
20441;SDS011;10380;52.102;20.614;2022-08-11T02:58:02;12.13;;;6.00;;
20441;SDS011;10380;52.102;20.614;2022-08-11T03:03:55;7.93;;;5.90;;
20441;SDS011;10380;52.102;20.614;2022-08-11T03:12:12;8.70;;;5.33;;
20441;SDS011;10380;52.102;20.614;2022-08-11T03:24:36;7.57;;;5.40;;
20441;SDS011;10380;52.102;20.614;2022-08-11T03:29:51;8.27;;;5.53;;
20441;SDS011;10380;52.102;20.614;2022-08-11T03:35:44;9.80;;;5.63;;
20441;SDS011;10380;52.102;20.614;2022-08-11T03:38:54;7.93;;;5.37;;
20441;SDS011;10380;52.102;20.614;2022-08-11T03:52:52;7.17;;;5.43;;
20441;SDS011;10380;52.102;20.614;2022-08-11T04:05:38;11.63;;;6.47;;
20441;SDS011;10380;52.102;20.614;2022-08-11T04:17:03;10.40;;;5.33;;
20441;SDS011;10380;52.102;20.614;2022-08-11T04:20:15;9.47;;;5.83;;
20441;SDS011;10380;52.102;20.614;2022-08-11T04:32:38;11.67;;;5.93;;
20441;SDS011;10380;52.102;20.614;2022-08-11T04:38:08;15.93;;;6.33;;
20441;SDS011;10380;52.102;20.614;2022-08-11T04:47:09;17.33;;;6.47;;
20441;SDS011;10380;52.102;20.614;2022-08-11T04:53:59;10.77;;;6.60;;
20441;SDS011;10380;52.102;20.614;2022-08-11T04:56:56;13.57;;;6.47;;
20441;SDS011;10380;52.102;20.614;2022-08-11T05:00:04;14.17;;;5.87;;
20441;SDS011;10380;52.102;20.614;2022-08-11T05:17:13;12.30;;;5.00;;
20441;SDS011;10380;52.102;20.614;2022-08-11T05:20:08;12.60;;;5.78;;
20441;SDS011;10380;52.102;20.614;2022-08-11T05:22:57;8.45;;;4.88;;
20441;SDS011;10380;52.102;20.614;2022-08-11T05:25:50;12.43;;;5.53;;
20441;SDS011;10380;52.102;20.614;2022-08-11T05:29:00;13.57;;;5.30;;
20441;SDS011;10380;52.102;20.614;2022-08-11T05:31:50;10.32;;;5.20;;
20441;SDS011;10380;52.102;20.614;2022-08-11T05:34:43;11.77;;;5.00;;
20441;SDS011;10380;52.102;20.614;2022-08-11T05:40:10;8.85;;;4.18;;
20441;SDS011;10380;52.102;20.614;2022-08-11T05:42:58;10.30;;;4.65;;
20441;SDS011;10380;52.102;20.614;2022-08-11T05:45:56;10.82;;;4.25;;
20441;SDS011;10380;52.102;20.614;2022-08-11T05:48:44;12.70;;;4.15;;
20441;SDS011;10380;52.102;20.614;2022-08-11T05:51:49;8.73;;;4.00;;
20441;SDS011;10380;52.102;20.614;2022-08-11T05:54:41;8.18;;;3.95;;
20441;SDS011;10380;52.102;20.614;2022-08-11T05:57:33;10.85;;;4.32;;
20441;SDS011;10380;52.102;20.614;2022-08-11T06:00:17;10.18;;;4.35;;
20441;SDS011;10380;52.102;20.614;2022-08-11T06:02:48;10.00;;;3.90;;
20441;SDS011;10380;52.102;20.614;2022-08-11T06:05:20;5.40;;;3.72;;
20441;SDS011;10380;52.102;20.614;2022-08-11T06:07:52;26.08;;;7.22;;
20441;SDS011;10380;52.102;20.614;2022-08-11T06:10:29;13.60;;;3.75;;
20441;SDS011;10380;52.102;20.614;2022-08-11T06:12:58;7.18;;;4.40;;
20441;SDS011;10380;52.102;20.614;2022-08-11T06:15:27;8.88;;;4.10;;
20441;SDS011;10380;52.102;20.614;2022-08-11T06:17:56;5.65;;;3.08;;
20441;SDS011;10380;52.102;20.614;2022-08-11T06:20:26;6.03;;;3.40;;
20441;SDS011;10380;52.102;20.614;2022-08-11T06:23:02;8.75;;;3.20;;
20441;SDS011;10380;52.102;20.614;2022-08-11T06:25:32;5.15;;;3.58;;
20441;SDS011;10380;52.102;20.614;2022-08-11T06:28:04;8.80;;;4.00;;
20441;SDS011;10380;52.102;20.614;2022-08-11T06:30:39;7.75;;;3.22;;
20441;SDS011;10380;52.102;20.614;2022-08-11T06:33:14;13.52;;;4.53;;
20441;SDS011;10380;52.102;20.614;2022-08-11T06:35:59;8.82;;;3.33;;
20441;SDS011;10380;52.102;20.614;2022-08-11T06:41:45;7.53;;;3.10;;
20441;SDS011;10380;52.102;20.614;2022-08-11T06:44:26;4.47;;;2.75;;
20441;SDS011;10380;52.102;20.614;2022-08-11T06:47:03;8.70;;;2.65;;
20441;SDS011;10380;52.102;20.614;2022-08-11T06:49:36;6.75;;;2.90;;
20441;SDS011;10380;52.102;20.614;2022-08-11T06:52:34;10.52;;;3.50;;
20441;SDS011;10380;52.102;20.614;2022-08-11T06:55:07;7.43;;;3.08;;
20441;SDS011;10380;52.102;20.614;2022-08-11T06:58:20;6.47;;;2.85;;
20441;SDS011;10380;52.102;20.614;2022-08-11T07:01:10;12.63;;;3.38;;
20441;SDS011;10380;52.102;20.614;2022-08-11T07:03:44;11.13;;;3.35;;
20441;SDS011;10380;52.102;20.614;2022-08-11T07:12:22;12.13;;;3.65;;
20441;SDS011;10380;52.102;20.614;2022-08-11T07:15:22;5.65;;;2.03;;
20441;SDS011;10380;52.102;20.614;2022-08-11T07:18:30;4.35;;;1.92;;
20441;SDS011;10380;52.102;20.614;2022-08-11T07:24:28;6.32;;;1.77;;
20441;SDS011;10380;52.102;20.614;2022-08-11T07:27:35;6.78;;;1.98;;
20441;SDS011;10380;52.102;20.614;2022-08-11T07:30:26;5.78;;;1.92;;
20441;SDS011;10380;52.102;20.614;2022-08-11T07:32:54;3.25;;;1.83;;
20441;SDS011;10380;52.102;20.614;2022-08-11T07:35:35;4.80;;;1.77;;
20441;SDS011;10380;52.102;20.614;2022-08-11T07:38:36;4.15;;;1.70;;
20441;SDS011;10380;52.102;20.614;2022-08-11T07:41:13;6.07;;;1.98;;
20441;SDS011;10380;52.102;20.614;2022-08-11T07:43:43;5.72;;;1.75;;
20441;SDS011;10380;52.102;20.614;2022-08-11T07:46:15;3.75;;;2.03;;
20441;SDS011;10380;52.102;20.614;2022-08-11T07:49:03;4.05;;;1.50;;
20441;SDS011;10380;52.102;20.614;2022-08-11T07:51:52;3.63;;;1.60;;
20441;SDS011;10380;52.102;20.614;2022-08-11T07:54:38;7.95;;;1.55;;
20441;SDS011;10380;52.102;20.614;2022-08-11T07:57:07;4.75;;;1.65;;
20441;SDS011;10380;52.102;20.614;2022-08-11T08:00:13;4.55;;;1.45;;
20441;SDS011;10380;52.102;20.614;2022-08-11T08:03:00;3.20;;;1.38;;
20441;SDS011;10380;52.102;20.614;2022-08-11T08:05:47;3.65;;;1.80;;
20441;SDS011;10380;52.102;20.614;2022-08-11T08:08:54;4.35;;;1.42;;
20441;SDS011;10380;52.102;20.614;2022-08-11T08:11:42;3.70;;;1.50;;
20441;SDS011;10380;52.102;20.614;2022-08-11T08:14:30;4.95;;;1.33;;
20441;SDS011;10380;52.102;20.614;2022-08-11T08:17:16;2.53;;;1.30;;
20441;SDS011;10380;52.102;20.614;2022-08-11T08:20:03;8.27;;;1.60;;
20441;SDS011;10380;52.102;20.614;2022-08-11T08:22:33;9.10;;;1.52;;
20441;SDS011;10380;52.102;20.614;2022-08-11T08:25:13;5.32;;;1.38;;
20441;SDS011;10380;52.102;20.614;2022-08-11T08:27:43;4.85;;;1.60;;
20441;SDS011;10380;52.102;20.614;2022-08-11T08:30:11;5.22;;;1.38;;
20441;SDS011;10380;52.102;20.614;2022-08-11T08:32:57;8.00;;;1.77;;
20441;SDS011;10380;52.102;20.614;2022-08-11T08:35:26;5.22;;;1.48;;
20441;SDS011;10380;52.102;20.614;2022-08-11T08:37:58;3.42;;;1.42;;
20441;SDS011;10380;52.102;20.614;2022-08-11T08:40:26;5.63;;;1.38;;
20441;SDS011;10380;52.102;20.614;2022-08-11T08:43:12;2.42;;;1.40;;
20441;SDS011;10380;52.102;20.614;2022-08-11T08:45:42;4.63;;;1.80;;
20441;SDS011;10380;52.102;20.614;2022-08-11T08:48:12;7.32;;;1.30;;
20441;SDS011;10380;52.102;20.614;2022-08-11T08:50:43;2.15;;;1.40;;
20441;SDS011;10380;52.102;20.614;2022-08-11T08:53:34;2.78;;;1.05;;
20441;SDS011;10380;52.102;20.614;2022-08-11T08:56:17;3.75;;;1.83;;
20441;SDS011;10380;52.102;20.614;2022-08-11T08:58:50;3.15;;;1.25;;
20441;SDS011;10380;52.102;20.614;2022-08-11T09:01:17;3.20;;;1.20;;
20441;SDS011;10380;52.102;20.614;2022-08-11T09:03:47;3.08;;;1.25;;
20441;SDS011;10380;52.102;20.614;2022-08-11T09:06:32;4.70;;;1.30;;
20441;SDS011;10380;52.102;20.614;2022-08-11T09:09:05;3.40;;;1.50;;
20441;SDS011;10380;52.102;20.614;2022-08-11T09:11:37;4.20;;;1.42;;
20441;SDS011;10380;52.102;20.614;2022-08-11T09:14:16;3.42;;;1.08;;
20441;SDS011;10380;52.102;20.614;2022-08-11T09:16:46;7.30;;;1.40;;
20441;SDS011;10380;52.102;20.614;2022-08-11T09:19:14;4.15;;;1.30;;
20441;SDS011;10380;52.102;20.614;2022-08-11T09:21:47;2.95;;;1.10;;
20441;SDS011;10380;52.102;20.614;2022-08-11T09:24:35;3.70;;;1.10;;
20441;SDS011;10380;52.102;20.614;2022-08-11T09:27:21;3.83;;;1.77;;
20441;SDS011;10380;52.102;20.614;2022-08-11T09:29:49;2.28;;;1.33;;
20441;SDS011;10380;52.102;20.614;2022-08-11T09:32:20;1.77;;;1.00;;
20441;SDS011;10380;52.102;20.614;2022-08-11T09:34:48;4.15;;;1.50;;
20441;SDS011;10380;52.102;20.614;2022-08-11T09:37:19;4.22;;;1.33;;
20441;SDS011;10380;52.102;20.614;2022-08-11T09:40:21;3.92;;;1.25;;
20441;SDS011;10380;52.102;20.614;2022-08-11T09:43:01;4.85;;;1.58;;
20441;SDS011;10380;52.102;20.614;2022-08-11T09:45:50;3.10;;;1.17;;
20441;SDS011;10380;52.102;20.614;2022-08-11T09:48:18;2.08;;;1.05;;
20441;SDS011;10380;52.102;20.614;2022-08-11T09:50:47;2.13;;;1.30;;
20441;SDS011;10380;52.102;20.614;2022-08-11T09:53:17;1.73;;;1.10;;
20441;SDS011;10380;52.102;20.614;2022-08-11T09:56:07;4.07;;;1.42;;
20441;SDS011;10380;52.102;20.614;2022-08-11T09:58:56;4.95;;;1.50;;
20441;SDS011;10380;52.102;20.614;2022-08-11T10:01:26;3.20;;;1.23;;
20441;SDS011;10380;52.102;20.614;2022-08-11T10:04:08;4.13;;;1.60;;
20441;SDS011;10380;52.102;20.614;2022-08-11T10:06:41;1.50;;;1.10;;
20441;SDS011;10380;52.102;20.614;2022-08-11T10:09:49;3.08;;;1.50;;
20441;SDS011;10380;52.102;20.614;2022-08-11T10:12:23;4.15;;;1.55;;
20441;SDS011;10380;52.102;20.614;2022-08-11T10:14:53;3.35;;;1.15;;
20441;SDS011;10380;52.102;20.614;2022-08-11T10:17:43;3.45;;;1.52;;
20441;SDS011;10380;52.102;20.614;2022-08-11T10:20:33;10.00;;;1.83;;
20441;SDS011;10380;52.102;20.614;2022-08-11T10:23:02;3.15;;;1.55;;
20441;SDS011;10380;52.102;20.614;2022-08-11T10:25:48;2.63;;;1.20;;
20441;SDS011;10380;52.102;20.614;2022-08-11T10:28:35;2.75;;;1.27;;
20441;SDS011;10380;52.102;20.614;2022-08-11T10:31:22;2.45;;;1.42;;
20441;SDS011;10380;52.102;20.614;2022-08-11T10:34:24;2.67;;;1.25;;
20441;SDS011;10380;52.102;20.614;2022-08-11T10:36:54;3.13;;;1.42;;
20441;SDS011;10380;52.102;20.614;2022-08-11T10:39:23;1.83;;;1.40;;
20441;SDS011;10380;52.102;20.614;2022-08-11T10:41:52;2.40;;;1.25;;
20441;SDS011;10380;52.102;20.614;2022-08-11T10:44:59;6.07;;;1.60;;
20441;SDS011;10380;52.102;20.614;2022-08-11T10:47:29;3.97;;;1.58;;
20441;SDS011;10380;52.102;20.614;2022-08-11T10:50:14;1.67;;;1.10;;
20441;SDS011;10380;52.102;20.614;2022-08-11T10:52:59;3.40;;;1.17;;
20441;SDS011;10380;52.102;20.614;2022-08-11T10:55:46;1.58;;;0.80;;
20441;SDS011;10380;52.102;20.614;2022-08-11T10:58:32;3.08;;;1.10;;
20441;SDS011;10380;52.102;20.614;2022-08-11T11:01:23;3.70;;;1.40;;
20441;SDS011;10380;52.102;20.614;2022-08-11T11:04:11;11.10;;;2.65;;
20441;SDS011;10380;52.102;20.614;2022-08-11T11:09:32;2.83;;;1.20;;
20441;SDS011;10380;52.102;20.614;2022-08-11T11:12:10;4.43;;;0.93;;
20441;SDS011;10380;52.102;20.614;2022-08-11T11:15:09;2.95;;;1.02;;
20441;SDS011;10380;52.102;20.614;2022-08-11T11:21:09;4.80;;;1.00;;
20441;SDS011;10380;52.102;20.614;2022-08-11T11:32:08;1.35;;;0.90;;
20441;SDS011;10380;52.102;20.614;2022-08-11T11:37:41;5.80;;;1.10;;
20441;SDS011;10380;52.102;20.614;2022-08-11T11:40:29;1.73;;;0.90;;
20441;SDS011;10380;52.102;20.614;2022-08-11T11:42:58;2.65;;;0.88;;
20441;SDS011;10380;52.102;20.614;2022-08-11T11:45:26;1.88;;;1.02;;
20441;SDS011;10380;52.102;20.614;2022-08-11T11:47:54;5.97;;;1.10;;
20441;SDS011;10380;52.102;20.614;2022-08-11T11:50:26;3.17;;;1.00;;
20441;SDS011;10380;52.102;20.614;2022-08-11T11:53:00;1.95;;;0.90;;
20441;SDS011;10380;52.102;20.614;2022-08-11T11:55:30;5.22;;;0.82;;
20441;SDS011;10380;52.102;20.614;2022-08-11T11:57:59;2.55;;;0.90;;
20441;SDS011;10380;52.102;20.614;2022-08-11T12:00:47;3.22;;;0.82;;
20441;SDS011;10380;52.102;20.614;2022-08-11T12:03:34;1.20;;;1.00;;
20441;SDS011;10380;52.102;20.614;2022-08-11T12:06:03;3.92;;;0.90;;
20441;SDS011;10380;52.102;20.614;2022-08-11T12:08:33;1.95;;;1.00;;
20441;SDS011;10380;52.102;20.614;2022-08-11T12:11:02;3.92;;;1.10;;
20441;SDS011;10380;52.102;20.614;2022-08-11T12:13:50;3.72;;;1.10;;
20441;SDS011;10380;52.102;20.614;2022-08-11T12:16:19;4.78;;;1.10;;
20441;SDS011;10380;52.102;20.614;2022-08-11T12:19:02;3.22;;;1.30;;
20441;SDS011;10380;52.102;20.614;2022-08-11T12:21:40;3.45;;;0.98;;
20441;SDS011;10380;52.102;20.614;2022-08-11T12:24:27;1.75;;;0.77;;
20441;SDS011;10380;52.102;20.614;2022-08-11T12:27:18;4.47;;;0.95;;
20441;SDS011;10380;52.102;20.614;2022-08-11T12:29:52;3.33;;;1.15;;
20441;SDS011;10380;52.102;20.614;2022-08-11T12:32:26;6.63;;;1.33;;
20441;SDS011;10380;52.102;20.614;2022-08-11T12:34:56;1.80;;;0.60;;
20441;SDS011;10380;52.102;20.614;2022-08-11T12:37:40;3.83;;;0.80;;
20441;SDS011;10380;52.102;20.614;2022-08-11T12:40:13;2.60;;;0.80;;
20441;SDS011;10380;52.102;20.614;2022-08-11T12:43:23;1.60;;;0.57;;
20441;SDS011;10380;52.102;20.614;2022-08-11T12:46:23;4.28;;;1.05;;
20441;SDS011;10380;52.102;20.614;2022-08-11T12:48:58;2.10;;;1.02;;
20441;SDS011;10380;52.102;20.614;2022-08-11T12:51:51;1.88;;;0.60;;
20441;SDS011;10380;52.102;20.614;2022-08-11T12:54:41;2.63;;;0.80;;
20441;SDS011;10380;52.102;20.614;2022-08-11T12:57:17;1.38;;;0.70;;
20441;SDS011;10380;52.102;20.614;2022-08-11T13:00:09;1.02;;;0.70;;
20441;SDS011;10380;52.102;20.614;2022-08-11T13:02:55;1.45;;;0.70;;
20441;SDS011;10380;52.102;20.614;2022-08-11T13:05:42;3.08;;;0.90;;
20441;SDS011;10380;52.102;20.614;2022-08-11T13:08:12;10.75;;;1.20;;
20441;SDS011;10380;52.102;20.614;2022-08-11T13:10:43;3.97;;;0.93;;
20441;SDS011;10380;52.102;20.614;2022-08-11T13:13:29;2.40;;;0.70;;
20441;SDS011;10380;52.102;20.614;2022-08-11T13:16:17;1.75;;;0.70;;
20441;SDS011;10380;52.102;20.614;2022-08-11T13:18:46;2.67;;;0.80;;
20441;SDS011;10380;52.102;20.614;2022-08-11T13:21:13;2.55;;;0.60;;
20441;SDS011;10380;52.102;20.614;2022-08-11T13:23:47;4.10;;;0.80;;
20441;SDS011;10380;52.102;20.614;2022-08-11T13:26:31;1.48;;;0.70;;
20441;SDS011;10380;52.102;20.614;2022-08-11T13:29:25;4.65;;;0.88;;
20441;SDS011;10380;52.102;20.614;2022-08-11T13:31:57;4.30;;;0.90;;
20441;SDS011;10380;52.102;20.614;2022-08-11T13:34:27;5.40;;;1.10;;
20441;SDS011;10380;52.102;20.614;2022-08-11T13:37:01;5.72;;;1.20;;
20441;SDS011;10380;52.102;20.614;2022-08-11T13:39:30;5.95;;;1.30;;
20441;SDS011;10380;52.102;20.614;2022-08-11T13:42:00;5.38;;;1.70;;
20441;SDS011;10380;52.102;20.614;2022-08-11T13:44:29;5.45;;;1.75;;
20441;SDS011;10380;52.102;20.614;2022-08-11T13:47:01;3.20;;;1.48;;
20441;SDS011;10380;52.102;20.614;2022-08-11T13:49:30;4.53;;;1.20;;
20441;SDS011;10380;52.102;20.614;2022-08-11T13:52:00;4.80;;;1.30;;
20441;SDS011;10380;52.102;20.614;2022-08-11T13:54:29;4.88;;;1.50;;
20441;SDS011;10380;52.102;20.614;2022-08-11T13:57:00;3.53;;;1.10;;
20441;SDS011;10380;52.102;20.614;2022-08-11T13:59:38;2.22;;;1.27;;
20441;SDS011;10380;52.102;20.614;2022-08-11T14:02:17;4.63;;;1.00;;
20441;SDS011;10380;52.102;20.614;2022-08-11T14:05:04;2.05;;;0.90;;
20441;SDS011;10380;52.102;20.614;2022-08-11T14:07:42;1.65;;;1.10;;
20441;SDS011;10380;52.102;20.614;2022-08-11T14:10:20;4.03;;;1.20;;
20441;SDS011;10380;52.102;20.614;2022-08-11T14:12:52;1.90;;;1.13;;
20441;SDS011;10380;52.102;20.614;2022-08-11T14:15:43;3.00;;;1.00;;
20441;SDS011;10380;52.102;20.614;2022-08-11T14:18:19;3.40;;;1.58;;
20441;SDS011;10380;52.102;20.614;2022-08-11T14:20:58;2.00;;;1.08;;
20441;SDS011;10380;52.102;20.614;2022-08-11T14:23:51;2.15;;;1.20;;
20441;SDS011;10380;52.102;20.614;2022-08-11T14:26:21;3.90;;;1.00;;
20441;SDS011;10380;52.102;20.614;2022-08-11T14:28:49;5.03;;;1.33;;
20441;SDS011;10380;52.102;20.614;2022-08-11T14:31:21;1.30;;;0.90;;
20441;SDS011;10380;52.102;20.614;2022-08-11T14:33:54;3.92;;;1.17;;
20441;SDS011;10380;52.102;20.614;2022-08-11T14:36:46;2.72;;;1.17;;
20441;SDS011;10380;52.102;20.614;2022-08-11T14:39:28;4.07;;;1.27;;
20441;SDS011;10380;52.102;20.614;2022-08-11T14:42:03;2.85;;;1.05;;
20441;SDS011;10380;52.102;20.614;2022-08-11T14:44:51;2.70;;;1.33;;
20441;SDS011;10380;52.102;20.614;2022-08-11T14:47:40;3.00;;;1.55;;
20441;SDS011;10380;52.102;20.614;2022-08-11T14:50:13;3.90;;;1.67;;
20441;SDS011;10380;52.102;20.614;2022-08-11T14:52:44;3.67;;;1.00;;
20441;SDS011;10380;52.102;20.614;2022-08-11T14:55:18;2.42;;;1.50;;
20441;SDS011;10380;52.102;20.614;2022-08-11T14:58:07;3.67;;;1.35;;
20441;SDS011;10380;52.102;20.614;2022-08-11T15:00:36;1.52;;;1.08;;
20441;SDS011;10380;52.102;20.614;2022-08-11T15:03:04;3.85;;;1.00;;
20441;SDS011;10380;52.102;20.614;2022-08-11T15:08:30;3.00;;;1.13;;
20441;SDS011;10380;52.102;20.614;2022-08-11T15:11:27;1.98;;;1.05;;
20441;SDS011;10380;52.102;20.614;2022-08-11T15:14:14;3.55;;;1.00;;
20441;SDS011;10380;52.102;20.614;2022-08-11T15:17:06;3.85;;;1.00;;
20441;SDS011;10380;52.102;20.614;2022-08-11T15:19:36;4.43;;;1.17;;
20441;SDS011;10380;52.102;20.614;2022-08-11T15:22:26;4.15;;;1.20;;
20441;SDS011;10380;52.102;20.614;2022-08-11T15:25:11;2.67;;;1.30;;
20441;SDS011;10380;52.102;20.614;2022-08-11T15:27:39;3.08;;;1.52;;
20441;SDS011;10380;52.102;20.614;2022-08-11T15:30:29;3.05;;;1.50;;
20441;SDS011;10380;52.102;20.614;2022-08-11T15:33:16;4.68;;;1.55;;
20441;SDS011;10380;52.102;20.614;2022-08-11T15:36:04;5.22;;;1.85;;
20441;SDS011;10380;52.102;20.614;2022-08-11T15:38:59;1.85;;;1.30;;
20441;SDS011;10380;52.102;20.614;2022-08-11T15:44:41;2.28;;;1.13;;
20441;SDS011;10380;52.102;20.614;2022-08-11T15:47:41;3.00;;;1.30;;
20441;SDS011;10380;52.102;20.614;2022-08-11T15:50:15;4.50;;;1.55;;
20441;SDS011;10380;52.102;20.614;2022-08-11T15:52:50;2.00;;;1.10;;
20441;SDS011;10380;52.102;20.614;2022-08-11T15:55:21;2.00;;;1.00;;
20441;SDS011;10380;52.102;20.614;2022-08-11T15:57:51;3.42;;;1.30;;
20441;SDS011;10380;52.102;20.614;2022-08-11T16:00:39;1.52;;;0.80;;
20441;SDS011;10380;52.102;20.614;2022-08-11T16:03:38;1.08;;;0.80;;
20441;SDS011;10380;52.102;20.614;2022-08-11T16:09:40;3.30;;;1.10;;
20441;SDS011;10380;52.102;20.614;2022-08-11T16:12:14;3.85;;;1.20;;
20441;SDS011;10380;52.102;20.614;2022-08-11T16:14:52;5.20;;;1.25;;
20441;SDS011;10380;52.102;20.614;2022-08-11T16:17:52;2.42;;;1.05;;
20441;SDS011;10380;52.102;20.614;2022-08-11T16:20:27;4.95;;;1.10;;
20441;SDS011;10380;52.102;20.614;2022-08-11T16:22:57;3.45;;;1.15;;
20441;SDS011;10380;52.102;20.614;2022-08-11T16:25:28;3.33;;;1.48;;
20441;SDS011;10380;52.102;20.614;2022-08-11T16:28:18;3.22;;;1.23;;
20441;SDS011;10380;52.102;20.614;2022-08-11T16:30:46;4.72;;;1.55;;
20441;SDS011;10380;52.102;20.614;2022-08-11T16:33:14;3.67;;;1.10;;
20441;SDS011;10380;52.102;20.614;2022-08-11T16:36:03;1.65;;;1.30;;
20441;SDS011;10380;52.102;20.614;2022-08-11T16:38:49;2.65;;;1.25;;
20441;SDS011;10380;52.102;20.614;2022-08-11T16:41:20;2.35;;;1.30;;
20441;SDS011;10380;52.102;20.614;2022-08-11T16:44:09;2.20;;;1.33;;
20441;SDS011;10380;52.102;20.614;2022-08-11T16:47:02;2.95;;;1.40;;
20441;SDS011;10380;52.102;20.614;2022-08-11T16:50:09;2.65;;;1.35;;
20441;SDS011;10380;52.102;20.614;2022-08-11T16:52:37;1.83;;;1.48;;
20441;SDS011;10380;52.102;20.614;2022-08-11T16:55:04;6.47;;;1.60;;
20441;SDS011;10380;52.102;20.614;2022-08-11T16:57:31;1.20;;;1.00;;
20441;SDS011;10380;52.102;20.614;2022-08-11T17:00:18;2.58;;;1.30;;
20441;SDS011;10380;52.102;20.614;2022-08-11T17:02:46;1.48;;;1.30;;
20441;SDS011;10380;52.102;20.614;2022-08-11T17:05:37;3.33;;;1.23;;
20441;SDS011;10380;52.102;20.614;2022-08-11T17:08:29;4.25;;;1.40;;
20441;SDS011;10380;52.102;20.614;2022-08-11T17:11:24;1.50;;;1.05;;
20441;SDS011;10380;52.102;20.614;2022-08-11T17:14:12;2.42;;;1.40;;
20441;SDS011;10380;52.102;20.614;2022-08-11T17:16:42;6.50;;;2.20;;
20441;SDS011;10380;52.102;20.614;2022-08-11T17:19:26;4.63;;;2.00;;
20441;SDS011;10380;52.102;20.614;2022-08-11T17:22:16;6.88;;;3.03;;
20441;SDS011;10380;52.102;20.614;2022-08-11T17:25:04;5.75;;;3.33;;
20441;SDS011;10380;52.102;20.614;2022-08-11T17:27:33;6.80;;;3.65;;
20441;SDS011;10380;52.102;20.614;2022-08-11T17:30:05;8.32;;;3.90;;
20441;SDS011;10380;52.102;20.614;2022-08-11T17:32:34;2.95;;;2.00;;
20441;SDS011;10380;52.102;20.614;2022-08-11T17:35:31;5.85;;;2.85;;
20441;SDS011;10380;52.102;20.614;2022-08-11T17:40:38;7.32;;;3.10;;
20441;SDS011;10380;52.102;20.614;2022-08-11T17:43:30;4.20;;;2.42;;
20441;SDS011;10380;52.102;20.614;2022-08-11T17:46:16;4.72;;;2.70;;
20441;SDS011;10380;52.102;20.614;2022-08-11T17:49:04;5.35;;;2.08;;
20441;SDS011;10380;52.102;20.614;2022-08-11T17:51:36;5.72;;;2.10;;
20441;SDS011;10380;52.102;20.614;2022-08-11T17:54:23;6.13;;;2.80;;
20441;SDS011;10380;52.102;20.614;2022-08-11T17:57:10;5.88;;;2.25;;
20441;SDS011;10380;52.102;20.614;2022-08-11T17:59:58;4.88;;;2.05;;
20441;SDS011;10380;52.102;20.614;2022-08-11T18:02:28;6.45;;;2.65;;
20441;SDS011;10380;52.102;20.614;2022-08-11T18:05:18;7.43;;;2.97;;
20441;SDS011;10380;52.102;20.614;2022-08-11T18:07:49;4.25;;;2.47;;
20441;SDS011;10380;52.102;20.614;2022-08-11T18:10:38;7.40;;;2.90;;
20441;SDS011;10380;52.102;20.614;2022-08-11T18:13:26;6.93;;;3.30;;
20441;SDS011;10380;52.102;20.614;2022-08-11T18:16:15;5.05;;;3.05;;
20441;SDS011;10380;52.102;20.614;2022-08-11T18:19:02;5.53;;;2.42;;
20441;SDS011;10380;52.102;20.614;2022-08-11T18:21:49;6.40;;;2.75;;
20441;SDS011;10380;52.102;20.614;2022-08-11T18:24:45;9.70;;;3.63;;
20441;SDS011;10380;52.102;20.614;2022-08-11T18:27:35;9.85;;;3.10;;
20441;SDS011;10380;52.102;20.614;2022-08-11T18:30:24;5.65;;;2.47;;
20441;SDS011;10380;52.102;20.614;2022-08-11T18:33:12;11.70;;;3.40;;
20441;SDS011;10380;52.102;20.614;2022-08-11T18:36:20;7.68;;;3.92;;
20441;SDS011;10380;52.102;20.614;2022-08-11T18:39:08;12.68;;;4.07;;
20441;SDS011;10380;52.102;20.614;2022-08-11T18:42:00;7.88;;;3.03;;
20441;SDS011;10380;52.102;20.614;2022-08-11T18:44:55;5.50;;;2.45;;
20441;SDS011;10380;52.102;20.614;2022-08-11T18:47:46;7.40;;;3.80;;
20441;SDS011;10380;52.102;20.614;2022-08-11T18:50:36;9.77;;;2.88;;
20441;SDS011;10380;52.102;20.614;2022-08-11T18:53:46;9.50;;;3.72;;
20441;SDS011;10380;52.102;20.614;2022-08-11T18:56:34;7.80;;;3.60;;
20441;SDS011;10380;52.102;20.614;2022-08-11T18:59:21;9.60;;;3.67;;
20441;SDS011;10380;52.102;20.614;2022-08-11T19:02:10;10.45;;;3.78;;
20441;SDS011;10380;52.102;20.614;2022-08-11T19:05:14;8.40;;;3.47;;
20441;SDS011;10380;52.102;20.614;2022-08-11T19:08:25;7.85;;;3.33;;
20441;SDS011;10380;52.102;20.614;2022-08-11T19:11:14;6.50;;;3.90;;
20441;SDS011;10380;52.102;20.614;2022-08-11T19:14:08;5.88;;;3.38;;
20441;SDS011;10380;52.102;20.614;2022-08-11T19:16:55;8.32;;;3.83;;
20441;SDS011;10380;52.102;20.614;2022-08-11T19:20:07;5.50;;;3.28;;
20441;SDS011;10380;52.102;20.614;2022-08-11T19:22:56;5.97;;;3.85;;
20441;SDS011;10380;52.102;20.614;2022-08-11T19:25:43;6.28;;;3.45;;
20441;SDS011;10380;52.102;20.614;2022-08-11T19:28:30;6.38;;;3.63;;
20441;SDS011;10380;52.102;20.614;2022-08-11T19:31:18;9.65;;;3.65;;
20441;SDS011;10380;52.102;20.614;2022-08-11T19:34:10;4.45;;;3.85;;